createdAt,value
2023-12-14T00:00:06.978Z,81
2023-12-14T00:30:20.531Z,79
2023-12-14T01:00:21.388Z,80
2023-12-14T01:30:12.484Z,80
2023-12-14T02:00:15.320Z,80
2023-12-14T02:30:19.381Z,81
2023-12-14T03:00:10.754Z,81
2023-12-14T03:30:01.464Z,79
2023-12-14T04:30:22.600Z,80
2023-12-14T05:00:26.480Z,81
2023-12-14T05:30:07.140Z,80
2023-12-14T06:00:11.374Z,80
2023-12-14T06:30:01.694Z,80
2023-12-14T07:00:02.933Z,80
2023-12-14T07:30:16.650Z,81
2023-12-14T08:00:09.878Z,81
2023-12-14T08:30:23.270Z,81
2023-12-14T09:00:10.256Z,80
2023-12-14T09:30:23.190Z,80
2023-12-14T10:00:15.345Z,79
2023-12-14T10:30:16.891Z,80
2023-12-14T11:00:20.492Z,80
2023-12-14T11:30:11.364Z,80
2023-12-14T12:00:24.489Z,77
2023-12-14T12:30:07.872Z,79
2023-12-14T13:00:08.985Z,78
2023-12-14T13:30:07.293Z,78
2023-12-14T14:00:27.381Z,78
2023-12-14T14:30:11.845Z,78
2023-12-14T15:00:12.728Z,79
2023-12-14T15:30:24.057Z,79
2023-12-14T16:00:07.767Z,77
2023-12-14T16:30:28.315Z,78
2023-12-14T17:00:20.780Z,78
2023-12-14T17:30:03.121Z,78
2023-12-14T18:30:11.720Z,78
2023-12-14T19:00:14.768Z,78
2023-12-14T19:30:19.454Z,78
2023-12-14T20:00:01.661Z,78
2023-12-14T20:30:02.546Z,78
2023-12-14T21:00:07.385Z,78
2023-12-14T21:30:19.574Z,76
2023-12-14T22:00:30.464Z,76
2023-12-14T22:30:14.245Z,75
2023-12-14T23:00:01.105Z,74
2023-12-14T23:30:03.476Z,76
